createdAt,value
2022-10-24T00:02:25.805Z,92.42
2022-10-24T00:07:28.755Z,91.97
2022-10-24T00:12:32.892Z,91.93
2022-10-24T00:17:36.160Z,92.43
2022-10-24T00:22:39.089Z,92.00
2022-10-24T00:27:43.217Z,92.17
2022-10-24T00:32:46.240Z,92.33
2022-10-24T00:37:49.170Z,91.97
2022-10-24T00:42:53.392Z,91.72
2022-10-24T00:47:56.165Z,91.84
2022-10-24T00:52:58.970Z,91.91
2022-10-24T00:58:05.380Z,90.99
2022-10-24T01:03:08.669Z,90.58
2022-10-24T01:08:22.442Z,90.39
2022-10-24T01:13:37.097Z,90.46
2022-10-24T01:18:45.564Z,90.09
2022-10-24T01:24:08.157Z,89.56
2022-10-24T01:29:20.668Z,88.12
2022-10-24T01:34:29.988Z,88.30
2022-10-24T01:39:37.780Z,87.30
2022-10-24T01:44:43.744Z,87.03
2022-10-24T01:49:53.680Z,86.90
2022-10-24T01:54:56.555Z,86.50
2022-10-24T01:59:59.708Z,85.82
2022-10-24T02:05:08.690Z,83.59
2022-10-24T02:10:16.384Z,83.30
2022-10-24T02:15:25.498Z,82.58
2022-10-24T02:20:34.501Z,82.48
2022-10-24T02:25:43.068Z,82.12
2022-10-24T02:30:51.401Z,80.86
2022-10-24T02:35:56.952Z,79.98
2022-10-24T02:41:04.304Z,77.62
2022-10-24T02:46:08.934Z,74.59
2022-10-24T02:51:14.214Z,73.54
2022-10-24T02:56:16.989Z,74.07
2022-10-24T03:01:19.956Z,73.86
2022-10-24T03:06:24.161Z,73.67
2022-10-24T03:11:26.977Z,75.66
2022-10-24T03:16:29.777Z,75.82
2022-10-24T03:21:33.932Z,75.00
2022-10-24T03:26:36.759Z,75.96
2022-10-24T03:31:39.541Z,76.10
2022-10-24T03:36:43.652Z,75.26
2022-10-24T03:41:46.417Z,74.42
2022-10-24T03:46:49.151Z,75.21
2022-10-24T03:51:53.266Z,74.75
2022-10-24T03:56:56.009Z,75.52
2022-10-24T04:01:59.742Z,75.30
2022-10-24T04:07:05.729Z,74.41
2022-10-24T04:12:08.775Z,74.26
2022-10-24T04:17:11.522Z,73.85
2022-10-24T04:22:15.726Z,73.84
2022-10-24T04:27:18.509Z,74.34
2022-10-24T04:32:21.297Z,74.18
2022-10-24T04:37:25.403Z,74.25
2022-10-24T04:42:28.136Z,73.13
2022-10-24T04:47:30.828Z,72.01
2022-10-24T04:52:34.922Z,71.76
2022-10-24T04:57:38.055Z,71.68
2022-10-24T05:02:40.894Z,72.17
2022-10-24T05:07:45.791Z,71.85
2022-10-24T05:12:48.904Z,71.65
2022-10-24T05:17:51.710Z,71.57
2022-10-24T05:22:55.802Z,72.29
2022-10-24T05:27:58.503Z,71.16
2022-10-24T05:33:01.238Z,71.53
2022-10-24T05:38:05.862Z,71.91
2022-10-24T05:43:08.613Z,72.17
2022-10-24T05:48:11.354Z,72.16
2022-10-24T05:53:15.398Z,72.52
2022-10-24T05:58:21.067Z,72.60
2022-10-24T06:03:24.767Z,72.19
2022-10-24T06:08:28.860Z,71.65
2022-10-24T06:13:35.308Z,71.39
2022-10-24T06:18:40.620Z,70.94
2022-10-24T06:23:44.732Z,70.65
2022-10-24T06:28:47.714Z,70.41
2022-10-24T06:33:50.461Z,69.36
2022-10-24T06:38:54.963Z,69.53
2022-10-24T06:43:58.001Z,68.91
2022-10-24T06:49:00.792Z,67.88
2022-10-24T06:54:05.045Z,68.33
2022-10-24T06:59:10.691Z,67.65
2022-10-24T07:04:13.861Z,66.78
2022-10-24T07:09:18.562Z,66.29
2022-10-24T07:14:21.407Z,65.16
2022-10-24T07:19:24.165Z,64.11
2022-10-24T07:24:28.288Z,63.30
2022-10-24T07:29:31.109Z,62.54
2022-10-24T07:34:34.894Z,61.49
2022-10-24T07:39:39.037Z,61.56
2022-10-24T07:44:42.015Z,61.28
2022-10-24T07:49:45.153Z,60.89
2022-10-24T07:54:49.322Z,59.28
2022-10-24T07:59:52.333Z,58.51
2022-10-24T08:04:55.122Z,58.74
2022-10-24T08:09:59.265Z,58.59
2022-10-24T08:15:02.658Z,57.84
2022-10-24T08:20:06.922Z,57.09
2022-10-24T08:25:11.766Z,57.59
2022-10-24T08:30:17.346Z,56.70
2022-10-24T08:35:22.013Z,55.78
2022-10-24T08:40:26.826Z,54.96
2022-10-24T08:45:36.841Z,55.68
2022-10-24T08:50:43.722Z,53.95
2022-10-24T08:55:51.512Z,52.63
2022-10-24T09:00:56.413Z,54.57
2022-10-24T09:06:02.591Z,54.98
2022-10-24T09:11:08.145Z,55.26
2022-10-24T09:16:12.234Z,54.03
2022-10-24T09:21:16.874Z,53.25
2022-10-24T09:26:28.291Z,52.04
2022-10-24T09:31:31.062Z,52.26
2022-10-24T09:36:33.942Z,55.86
2022-10-24T09:41:38.220Z,56.04
2022-10-24T09:46:45.940Z,57.86
2022-10-24T09:51:52.185Z,56.92
2022-10-24T09:56:59.120Z,57.17
2022-10-24T10:02:24.640Z,58.08
2022-10-24T10:07:29.808Z,58.68
2022-10-24T10:12:36.904Z,57.75
2022-10-24T10:17:51.335Z,58.39
2022-10-24T10:22:54.221Z,58.64
2022-10-24T10:28:00.997Z,58.13
2022-10-24T10:33:18.522Z,58.05
2022-10-24T10:38:44.749Z,58.90
2022-10-24T10:43:57.828Z,58.49
2022-10-24T10:49:13.232Z,58.45
2022-10-24T10:54:58.199Z,59.09
2022-10-24T11:00:09.961Z,64.27
2022-10-24T11:05:27.159Z,64.08
2022-10-24T11:10:36.836Z,59.50
2022-10-24T11:15:44.926Z,58.48
2022-10-24T11:20:53.182Z,58.57
2022-10-24T11:26:03.044Z,58.55
2022-10-24T11:31:12.449Z,57.55
2022-10-24T11:36:21.443Z,58.28
2022-10-24T11:41:36.807Z,59.58
2022-10-24T11:46:45.560Z,58.75
2022-10-24T11:51:52.560Z,58.90
2022-10-24T11:57:00.458Z,58.80
2022-10-24T12:02:36.805Z,58.22
2022-10-24T12:08:09.272Z,58.35
2022-10-24T12:13:29.732Z,58.32
2022-10-24T12:18:37.161Z,58.23
2022-10-24T12:23:41.990Z,59.02
2022-10-24T12:28:54.241Z,58.46
2022-10-24T12:34:46.096Z,56.03
2022-10-24T12:39:56.186Z,57.00
2022-10-24T12:45:28.689Z,57.06
2022-10-24T12:50:59.621Z,57.67
2022-10-24T13:01:29.638Z,67.82
2022-10-24T13:06:48.092Z,69.27
2022-10-24T13:12:05.393Z,68.16
2022-10-24T13:17:14.706Z,67.06
2022-10-24T13:22:30.632Z,66.43
2022-10-24T13:27:33.460Z,62.26
2022-10-24T13:37:44.500Z,56.32
2022-10-24T13:42:52.963Z,58.80
2022-10-24T13:48:01.833Z,59.91
2022-10-24T13:53:15.434Z,58.27
2022-10-24T13:58:20.656Z,59.79
2022-10-24T14:03:26.477Z,61.21
2022-10-24T14:08:33.408Z,59.25
2022-10-24T14:13:43.660Z,59.34
2022-10-24T14:18:46.654Z,59.87
2022-10-24T14:23:59.336Z,58.83
2022-10-24T14:29:02.388Z,56.60
2022-10-24T14:34:09.584Z,59.53
2022-10-24T14:39:23.663Z,61.18
2022-10-24T14:44:27.149Z,60.64
2022-10-24T14:49:33.986Z,60.64
2022-10-24T14:54:39.180Z,59.92
2022-10-24T14:59:46.515Z,59.75
2022-10-24T15:04:51.841Z,59.80
2022-10-24T15:09:58.663Z,59.94
2022-10-24T15:15:22.713Z,60.02
2022-10-24T15:20:29.434Z,61.25
2022-10-24T15:25:38.038Z,61.69
2022-10-24T15:30:43.391Z,62.12
2022-10-24T15:35:46.215Z,61.70
2022-10-24T15:40:50.424Z,62.36
2022-10-24T15:45:53.357Z,63.17
2022-10-24T15:50:56.170Z,64.31
2022-10-24T15:56:00.360Z,63.41
2022-10-24T16:01:03.352Z,63.70
2022-10-24T16:06:06.476Z,67.75
2022-10-24T16:11:13.165Z,69.68
2022-10-24T16:16:15.993Z,72.35
2022-10-24T16:21:20.579Z,73.56
2022-10-24T16:26:24.876Z,74.45
2022-10-24T16:31:27.665Z,74.24
2022-10-24T16:36:30.870Z,75.42
2022-10-24T16:41:35.053Z,76.22
2022-10-24T16:46:37.795Z,74.93
2022-10-24T16:51:43.221Z,75.12
2022-10-24T16:56:52.514Z,76.25
2022-10-24T17:01:56.761Z,76.98
2022-10-24T17:06:59.563Z,76.05
2022-10-24T17:12:04.008Z,76.83
2022-10-24T17:17:07.162Z,77.01
2022-10-24T17:22:12.333Z,76.74
2022-10-24T17:27:17.249Z,76.49
2022-10-24T17:32:20.234Z,75.81
2022-10-24T17:37:30.780Z,76.25
2022-10-24T17:42:35.474Z,75.72
2022-10-24T17:47:38.374Z,74.67
2022-10-24T17:52:42.329Z,75.06
2022-10-24T17:57:46.962Z,75.94
2022-10-24T18:02:51.229Z,75.22
2022-10-24T18:07:54.031Z,76.53
2022-10-24T18:18:02.017Z,79.07
2022-10-24T18:23:05.278Z,77.65
2022-10-24T18:28:09.531Z,78.46
2022-10-24T18:33:12.304Z,79.55
2022-10-24T18:38:18.669Z,78.84
2022-10-24T18:43:23.061Z,78.19
2022-10-24T18:48:26.515Z,78.58
2022-10-24T18:53:33.145Z,78.84
2022-10-24T18:58:37.564Z,78.20
2022-10-24T19:03:41.257Z,77.50
2022-10-24T19:08:44.405Z,77.83
2022-10-24T19:13:48.860Z,77.99
2022-10-24T19:18:56.709Z,77.41
2022-10-24T19:23:59.882Z,77.33
2022-10-24T19:29:05.812Z,77.88
2022-10-24T19:34:10.579Z,78.83
2022-10-24T19:39:13.464Z,77.28
2022-10-24T19:44:17.674Z,76.75
2022-10-24T19:49:20.631Z,77.46
2022-10-24T19:54:23.410Z,77.02
2022-10-24T19:59:31.719Z,77.35
2022-10-24T20:04:38.893Z,76.77
2022-10-24T20:09:41.644Z,76.32
2022-10-24T20:14:45.838Z,76.31
2022-10-24T20:19:48.674Z,77.38
2022-10-24T20:24:51.442Z,78.03
2022-10-24T20:29:56.117Z,79.35
2022-10-24T20:34:58.896Z,80.18
2022-10-24T20:40:01.957Z,78.71
2022-10-24T20:45:07.304Z,77.67
2022-10-24T20:50:10.673Z,78.81
2022-10-24T20:55:25.060Z,78.44
2022-10-24T21:00:37.458Z,79.17
2022-10-24T21:05:40.251Z,79.65
2022-10-24T21:10:42.999Z,79.89
2022-10-24T21:15:47.115Z,78.80
2022-10-24T21:20:49.897Z,79.65
2022-10-24T21:26:02.586Z,80.69
2022-10-24T21:31:07.759Z,81.90
2022-10-24T21:36:13.312Z,82.55
2022-10-24T21:41:16.804Z,82.40
2022-10-24T21:46:22.704Z,83.00
2022-10-24T21:51:26.992Z,82.57
2022-10-24T21:56:31.634Z,82.65
2022-10-24T22:01:38.047Z,82.17
2022-10-24T22:06:42.099Z,81.43
2022-10-24T22:11:45.801Z,84.22
2022-10-24T22:16:49.918Z,86.36
2022-10-24T22:21:53.079Z,88.77
2022-10-24T22:26:55.977Z,89.47
2022-10-24T22:32:00.884Z,89.93
2022-10-24T22:37:16.409Z,89.93
2022-10-24T22:42:20.401Z,89.73
2022-10-24T22:47:59.337Z,89.57
2022-10-24T22:53:02.618Z,88.73
2022-10-24T22:58:05.970Z,88.92
2022-10-24T23:03:20.495Z,87.86
2022-10-24T23:08:31.759Z,86.82
2022-10-24T23:13:35.160Z,86.60
2022-10-24T23:18:40.364Z,86.65
2022-10-24T23:23:43.648Z,86.42
2022-10-24T23:28:51.506Z,86.04
2022-10-24T23:33:56.273Z,85.34
2022-10-24T23:38:59.585Z,85.24
2022-10-24T23:44:02.797Z,87.51
2022-10-24T23:49:18.651Z,90.50
2022-10-24T23:54:26.217Z,91.63
2022-10-24T23:59:29.553Z,90.59
